createdAt,value
2023-03-31T00:01:28.592Z,94945.97
2023-03-31T00:04:05.107Z,94942.28
2023-03-31T00:06:38.328Z,94945.97
2023-03-31T00:09:05.974Z,94938.63
2023-03-31T00:11:34.792Z,94937.84
2023-03-31T00:14:03.921Z,94941.06
2023-03-31T00:16:32.958Z,94927.84
2023-03-31T00:21:42.875Z,94938.19
2023-03-31T00:24:15.327Z,94940.03
2023-03-31T00:26:44.128Z,94931.28
2023-03-31T00:29:17.534Z,94940.03
2023-03-31T00:31:47.381Z,94942.44
2023-03-31T00:34:14.194Z,94931.88
2023-03-31T00:36:47.719Z,94923.94
2023-03-31T00:39:19.271Z,94933.72
2023-03-31T00:41:48.482Z,94923.94
2023-03-31T00:44:25.429Z,94923.94
2023-03-31T00:47:07.152Z,94923.75
2023-03-31T00:49:34.232Z,94920.28
2023-03-31T00:52:27.584Z,94916.66
2023-03-31T00:55:01.477Z,94909.72
2023-03-31T00:57:30.366Z,94905.25
2023-03-31T00:59:59.249Z,94908.72
2023-03-31T01:02:25.993Z,94906.09
2023-03-31T01:04:56.865Z,94895.53
2023-03-31T01:07:47.678Z,94897.94
2023-03-31T01:10:16.610Z,94890.25
2023-03-31T01:12:49.103Z,94887.59
2023-03-31T01:15:15.904Z,94902.41
2023-03-31T01:17:45.832Z,94888.59
2023-03-31T01:20:24.689Z,94882.09
2023-03-31T01:23:28.835Z,94892.66
2023-03-31T01:26:17.177Z,94898.75
2023-03-31T01:29:21.566Z,94901.41
2023-03-31T01:31:57.938Z,94901.41
2023-03-31T01:34:43.316Z,94898.75
2023-03-31T01:37:38.638Z,94905.66
2023-03-31T01:40:10.581Z,94910.94
2023-03-31T01:42:46.264Z,94916.22
2023-03-31T01:45:21.228Z,94909.09
2023-03-31T01:48:06.811Z,94917.81
2023-03-31T01:50:49.608Z,94926.78
2023-03-31T01:54:04.148Z,94932.84
2023-03-31T01:57:16.587Z,94938.13
2023-03-31T02:00:01.669Z,94933.69
2023-03-31T02:02:31.448Z,94933.69
2023-03-31T02:05:05.513Z,94923.13
2023-03-31T02:07:49.168Z,94929.19
2023-03-31T02:10:18.248Z,94940.56
2023-03-31T02:12:47.332Z,94930.00
2023-03-31T02:15:19.265Z,94935.28
2023-03-31T02:17:51.743Z,94945.84
2023-03-31T02:20:21.176Z,94953.78
2023-03-31T02:22:55.404Z,94947.47
2023-03-31T02:25:41.314Z,94980.78
2023-03-31T02:28:12.413Z,94963.31
2023-03-31T02:33:19.509Z,94975.50
2023-03-31T02:35:46.249Z,94968.41
2023-03-31T02:38:15.873Z,94962.09
2023-03-31T02:40:42.557Z,94972.84
2023-03-31T02:43:11.551Z,94973.44
2023-03-31T02:45:49.501Z,94973.44
2023-03-31T02:48:19.233Z,94977.13
2023-03-31T02:54:16.674Z,94968.16
2023-03-31T02:57:17.671Z,94941.75
2023-03-31T02:59:53.464Z,94953.13
2023-03-31T03:02:32.199Z,94947.03
2023-03-31T03:05:13.761Z,94941.75
2023-03-31T03:07:46.567Z,94927.50
2023-03-31T03:10:21.296Z,94921.44
2023-03-31T03:13:12.412Z,94931.78
2023-03-31T03:15:50.798Z,94922.22
2023-03-31T03:18:19.733Z,94915.91
2023-03-31T03:20:51.161Z,94907.22
2023-03-31T03:23:22.795Z,94905.34
2023-03-31T03:25:51.864Z,94902.72
2023-03-31T03:28:21.437Z,94899.28
2023-03-31T03:30:51.466Z,94904.31
2023-03-31T03:33:25.015Z,94900.91
2023-03-31T03:35:52.002Z,94895.81
2023-03-31T03:38:18.733Z,94902.72
2023-03-31T03:40:50.325Z,94899.03
2023-03-31T03:43:21.877Z,94896.41
2023-03-31T03:45:54.882Z,94888.47
2023-03-31T03:48:21.664Z,94888.47
2023-03-31T03:50:50.732Z,94888.47
2023-03-31T03:53:17.338Z,94886.88
2023-03-31T03:55:49.091Z,94884.00
2023-03-31T03:58:17.246Z,94888.47
2023-03-31T04:00:48.630Z,94885.50
2023-03-31T04:03:15.437Z,94898.03
2023-03-31T04:05:45.310Z,94900.66
2023-03-31T04:08:14.143Z,94904.31
2023-03-31T04:10:46.942Z,94904.31
2023-03-31T04:13:13.600Z,94901.69
2023-03-31T04:15:40.356Z,94899.03
2023-03-31T04:18:11.338Z,94908.81
2023-03-31T04:20:40.891Z,94916.50
2023-03-31T04:23:09.809Z,94905.94
2023-03-31T04:25:46.420Z,94910.22
2023-03-31T04:28:15.469Z,94908.59
2023-03-31T04:30:44.510Z,94902.31
2023-03-31T04:33:15.728Z,94900.66
2023-03-31T04:35:52.721Z,94902.31
2023-03-31T04:38:27.372Z,94904.13
2023-03-31T04:40:54.269Z,94897.03
2023-03-31T04:43:21.269Z,94896.19
2023-03-31T04:45:47.953Z,94895.16
2023-03-31T04:48:17.294Z,94889.88
2023-03-31T04:50:48.801Z,94892.53
2023-03-31T04:53:20.709Z,94893.34
2023-03-31T04:55:47.330Z,94891.75
2023-03-31T04:58:18.771Z,94882.78
2023-03-31T05:00:47.934Z,94880.13
2023-03-31T05:03:14.807Z,94882.78
2023-03-31T05:05:47.107Z,94882.78
2023-03-31T05:08:13.731Z,94884.59
2023-03-31T05:10:45.289Z,94881.16
2023-03-31T05:13:12.005Z,94875.66
2023-03-31T05:15:43.382Z,94871.19
2023-03-31T05:18:10.087Z,94868.53
2023-03-31T05:20:38.948Z,94865.09
2023-03-31T05:23:12.905Z,94857.97
2023-03-31T05:25:42.416Z,94846.38
2023-03-31T05:28:11.321Z,94864.88
2023-03-31T05:30:40.177Z,94859.34
2023-03-31T05:33:06.929Z,94857.53
2023-03-31T05:35:33.570Z,94857.53
2023-03-31T05:38:00.280Z,94862.81
2023-03-31T05:40:26.920Z,94858.34
2023-03-31T05:42:58.225Z,94841.69
2023-03-31T05:45:24.849Z,94841.69
2023-03-31T05:47:51.619Z,94860.78
2023-03-31T05:50:20.724Z,94848.63
2023-03-31T05:52:47.418Z,94850.22
2023-03-31T05:55:14.074Z,94868.97
2023-03-31T05:57:43.620Z,94870.25
2023-03-31T06:00:15.163Z,94867.03
2023-03-31T06:02:48.028Z,94871.56
2023-03-31T06:05:14.887Z,94874.44
2023-03-31T06:07:43.723Z,94872.44
2023-03-31T06:10:13.092Z,94877.91
2023-03-31T06:12:48.550Z,94873.06
2023-03-31T06:15:16.243Z,94867.75
2023-03-31T06:17:45.363Z,94873.56
2023-03-31T06:20:27.187Z,94863.00
2023-03-31T06:22:55.174Z,94856.44
2023-03-31T06:25:24.562Z,94851.13
2023-03-31T06:27:53.877Z,94853.97
2023-03-31T06:30:20.729Z,94858.38
2023-03-31T06:32:47.392Z,94862.84
2023-03-31T06:35:17.328Z,94858.75
2023-03-31T06:37:49.675Z,94859.72
2023-03-31T06:40:16.591Z,94877.34
2023-03-31T06:42:45.659Z,94868.81
2023-03-31T06:45:14.577Z,94863.75
2023-03-31T06:47:44.038Z,94863.06
2023-03-31T06:50:11.577Z,94872.22
2023-03-31T06:52:38.264Z,94875.19
2023-03-31T06:55:05.507Z,94873.19
2023-03-31T06:57:35.309Z,94867.88
2023-03-31T07:00:02.186Z,94863.75
2023-03-31T07:02:31.403Z,94862.09
2023-03-31T07:04:58.118Z,94857.41
2023-03-31T07:07:28.023Z,94845.63
2023-03-31T07:09:56.853Z,94844.94
2023-03-31T07:12:24.553Z,94825.03
2023-03-31T07:14:51.354Z,94816.69
2023-03-31T07:17:18.123Z,94815.78
2023-03-31T07:19:48.255Z,94813.34
2023-03-31T07:22:15.912Z,94802.91
2023-03-31T07:24:44.796Z,94799.63
2023-03-31T07:27:11.398Z,94792.06
2023-03-31T07:29:40.767Z,94789.00
2023-03-31T07:32:07.622Z,94789.38
2023-03-31T07:34:37.614Z,94802.34
2023-03-31T07:37:06.731Z,94809.84
2023-03-31T07:39:36.582Z,94799.88
2023-03-31T07:42:03.322Z,94803.88
2023-03-31T07:44:29.940Z,94790.28
2023-03-31T07:47:01.433Z,94784.75
2023-03-31T07:49:31.242Z,94783.72
2023-03-31T07:51:57.928Z,94780.66
2023-03-31T07:54:24.920Z,94783.91
2023-03-31T07:56:56.388Z,94777.34
2023-03-31T07:59:25.485Z,94786.66
2023-03-31T08:01:56.850Z,94785.63
2023-03-31T08:04:23.616Z,94782.53
2023-03-31T08:06:52.512Z,94776.03
2023-03-31T08:09:24.009Z,94766.28
2023-03-31T08:11:55.366Z,94760.53
2023-03-31T08:14:34.134Z,94762.94
2023-03-31T08:17:07.468Z,94762.16
2023-03-31T08:19:34.187Z,94758.69
2023-03-31T08:22:12.205Z,94756.03
2023-03-31T08:24:43.657Z,94758.47
2023-03-31T08:27:13.310Z,94758.25
2023-03-31T08:29:42.246Z,94762.44
2023-03-31T08:32:13.651Z,94755.06
2023-03-31T08:34:44.712Z,94750.59
2023-03-31T08:37:13.616Z,94752.19
2023-03-31T08:39:40.360Z,94750.59
2023-03-31T08:42:22.733Z,94748.19
2023-03-31T08:45:04.236Z,94742.44
2023-03-31T08:47:35.291Z,94755.19
2023-03-31T08:50:13.917Z,94746.16
2023-03-31T08:52:51.265Z,94753.28
2023-03-31T08:55:32.348Z,94743.97
2023-03-31T08:58:13.662Z,94736.25
2023-03-31T09:00:48.958Z,94735.66
2023-03-31T09:03:31.663Z,94729.34
2023-03-31T09:06:03.233Z,94731.41
2023-03-31T09:08:37.568Z,94729.34
2023-03-31T09:11:08.061Z,94729.34
2023-03-31T09:13:37.548Z,94725.09
2023-03-31T09:16:35.886Z,94722.44
2023-03-31T09:19:02.760Z,94725.09
2023-03-31T09:21:35.732Z,94718.31
2023-03-31T09:24:10.658Z,94719.03
2023-03-31T09:27:09.911Z,94712.25
2023-03-31T09:29:43.131Z,94709.19
2023-03-31T09:32:24.595Z,94714.47
2023-03-31T09:35:01.159Z,94715.63
2023-03-31T09:37:32.974Z,94713.56
2023-03-31T09:40:07.510Z,94716.00
2023-03-31T09:42:37.990Z,94716.78
2023-03-31T09:45:05.002Z,94720.00
2023-03-31T09:47:39.990Z,94705.31
2023-03-31T09:50:07.764Z,94697.94
2023-03-31T09:52:46.296Z,94690.59
2023-03-31T09:55:39.590Z,94695.41
2023-03-31T09:58:12.232Z,94691.72
2023-03-31T10:00:43.386Z,94689.66
2023-03-31T10:03:15.148Z,94691.28
2023-03-31T10:05:52.643Z,94678.66
2023-03-31T10:08:28.228Z,94685.56
2023-03-31T10:10:57.818Z,94675.56
2023-03-31T10:13:31.251Z,94669.22
2023-03-31T10:16:08.518Z,94664.72
2023-03-31T10:18:39.823Z,94671.88
2023-03-31T10:21:24.019Z,94680.69
2023-03-31T10:23:51.274Z,94668.66
2023-03-31T10:26:24.782Z,94668.06
2023-03-31T10:28:55.198Z,94668.06
2023-03-31T10:31:34.848Z,94655.44
2023-03-31T10:34:05.764Z,94654.63
2023-03-31T10:36:32.450Z,94654.84
2023-03-31T10:39:01.317Z,94646.91
2023-03-31T10:41:34.631Z,94639.97
2023-03-31T10:44:06.040Z,94640.59
2023-03-31T10:46:48.838Z,94637.09
2023-03-31T10:49:21.758Z,94642.41
2023-03-31T10:52:02.189Z,94641.38
2023-03-31T10:54:28.788Z,94632.19
2023-03-31T10:57:00.337Z,94627.69
2023-03-31T10:59:50.673Z,94638.28
2023-03-31T11:02:29.330Z,94629.53
2023-03-31T11:05:18.340Z,94632.19
2023-03-31T11:08:22.956Z,94627.69
2023-03-31T11:11:10.619Z,94620.00
2023-03-31T11:14:11.134Z,94618.97
2023-03-31T11:16:57.477Z,94616.31
2023-03-31T11:19:45.054Z,94614.72
2023-03-31T11:22:20.816Z,94612.84
2023-03-31T11:27:55.859Z,94594.78
2023-03-31T11:30:39.830Z,94590.31
2023-03-31T11:33:22.762Z,94587.06
2023-03-31T11:36:20.428Z,94582.59
2023-03-31T11:39:09.255Z,94591.56
2023-03-31T11:41:52.431Z,94584.66
2023-03-31T11:44:21.778Z,94576.94
2023-03-31T11:46:54.887Z,94579.59
2023-03-31T11:49:27.518Z,94575.34
2023-03-31T11:52:02.969Z,94573.72
2023-03-31T11:54:39.096Z,94572.69
2023-03-31T11:57:23.694Z,94562.34
2023-03-31T12:00:06.368Z,94567.66
2023-03-31T12:02:55.169Z,94553.38
2023-03-31T12:05:29.081Z,94550.97
2023-03-31T12:08:24.785Z,94541.19
2023-03-31T12:10:56.261Z,94540.38
2023-03-31T12:13:28.908Z,94539.34
2023-03-31T12:16:15.022Z,94535.09
2023-03-31T12:18:54.096Z,94536.69
2023-03-31T12:21:26.621Z,94531.41
2023-03-31T12:23:53.208Z,94528.97
2023-03-31T12:26:36.377Z,94533.47
2023-03-31T12:29:13.012Z,94523.69
2023-03-31T12:31:41.977Z,94527.38
2023-03-31T12:34:16.390Z,94516.78
2023-03-31T12:37:19.195Z,94522.06
2023-03-31T12:39:46.230Z,94518.66
2023-03-31T12:42:44.643Z,94519.22
2023-03-31T12:45:20.422Z,94519.22
2023-03-31T12:47:47.420Z,94513.09
2023-03-31T12:50:27.815Z,94504.38
2023-03-31T12:53:06.116Z,94491.16
2023-03-31T12:55:39.044Z,94485.88
2023-03-31T12:58:32.500Z,94482.41
2023-03-31T13:01:24.219Z,94467.56
2023-03-31T13:03:54.745Z,94468.38
2023-03-31T13:06:27.527Z,94468.38
2023-03-31T13:08:54.259Z,94460.19
2023-03-31T13:11:23.261Z,94450.66
2023-03-31T13:14:01.026Z,94441.94
2023-03-31T13:16:30.574Z,94434.78
2023-03-31T13:19:02.069Z,94429.28
2023-03-31T13:21:33.489Z,94422.38
2023-03-31T13:24:05.527Z,94407.56
2023-03-31T13:26:48.809Z,94398.56
2023-03-31T13:29:15.598Z,94393.28
2023-03-31T13:32:01.088Z,94383.75
2023-03-31T13:34:35.530Z,94379.50
2023-03-31T13:37:30.530Z,94380.28
2023-03-31T13:39:59.901Z,94376.84
2023-03-31T13:42:49.382Z,94373.16
2023-03-31T13:45:38.076Z,94367.06
2023-03-31T13:48:26.412Z,94361.75
2023-03-31T13:51:16.246Z,94348.78
2023-03-31T13:53:58.143Z,94353.03
2023-03-31T13:56:28.412Z,94354.09
2023-03-31T13:59:32.791Z,94347.97
2023-03-31T14:02:27.312Z,94346.16
2023-03-31T14:04:56.999Z,94338.22
2023-03-31T14:07:37.840Z,94347.97
2023-03-31T14:10:07.256Z,94341.66
2023-03-31T14:12:35.818Z,94330.28
2023-03-31T14:15:05.233Z,94339.00
2023-03-31T14:17:43.945Z,94325.22
2023-03-31T14:20:36.471Z,94330.28
2023-03-31T14:23:08.612Z,94339.00
2023-03-31T14:25:36.156Z,94330.28
2023-03-31T14:28:21.756Z,94328.69
2023-03-31T14:31:11.046Z,94319.69
2023-03-31T14:34:15.796Z,94317.06
2023-03-31T14:37:01.808Z,94315.44
2023-03-31T14:39:36.522Z,94304.88
2023-03-31T14:42:06.286Z,94306.47
2023-03-31T14:44:34.192Z,94307.53
2023-03-31T14:47:01.855Z,94303.28
2023-03-31T14:49:30.498Z,94289.78
2023-03-31T14:52:03.408Z,94294.28
2023-03-31T14:54:34.354Z,94295.91
2023-03-31T14:57:03.618Z,94289.00
2023-03-31T14:59:32.831Z,94289.00
2023-03-31T15:02:01.765Z,94289.00
2023-03-31T15:04:41.296Z,94281.84
2023-03-31T15:07:13.544Z,94267.84
2023-03-31T15:09:40.163Z,94270.50
2023-03-31T15:12:14.961Z,94285.31
2023-03-31T15:15:04.062Z,94280.03
2023-03-31T15:17:39.462Z,94276.00
2023-03-31T15:20:39.948Z,94278.41
2023-03-31T15:23:25.295Z,94282.13
2023-03-31T15:26:02.001Z,94278.41
2023-03-31T15:28:34.085Z,94265.66
2023-03-31T15:31:10.268Z,94281.06
2023-03-31T15:33:41.649Z,94284.75
2023-03-31T15:36:13.715Z,94276.81
2023-03-31T15:38:42.481Z,94271.53
2023-03-31T15:41:17.071Z,94273.13
2023-03-31T15:44:05.624Z,94273.13
2023-03-31T15:46:38.527Z,94274.19
2023-03-31T15:49:05.925Z,94273.13
2023-03-31T15:51:43.737Z,94265.44
2023-03-31T15:54:49.968Z,94273.13
2023-03-31T15:57:19.998Z,94267.84
2023-03-31T15:59:55.827Z,94267.84
2023-03-31T16:02:25.137Z,94267.03
2023-03-31T16:04:58.163Z,94270.50
2023-03-31T16:07:33.484Z,94269.44
2023-03-31T16:10:06.339Z,94269.44
2023-03-31T16:12:36.899Z,94269.44
2023-03-31T16:15:10.625Z,94269.44
2023-03-31T16:17:43.192Z,94265.75
2023-03-31T16:20:16.823Z,94270.22
2023-03-31T16:22:48.341Z,94265.75
2023-03-31T16:25:19.125Z,94269.44
2023-03-31T16:27:47.891Z,94260.47
2023-03-31T16:30:16.891Z,94260.47
2023-03-31T16:33:11.794Z,94252.75
2023-03-31T16:36:01.773Z,94255.97
2023-03-31T16:38:29.582Z,94271.03
2023-03-31T16:40:57.626Z,94269.44
2023-03-31T16:43:28.744Z,94271.03
2023-03-31T16:45:58.389Z,94271.03
2023-03-31T16:48:29.278Z,94263.91
2023-03-31T16:50:57.545Z,94260.47
2023-03-31T16:53:27.854Z,94265.75
2023-03-31T16:55:55.076Z,94262.06
2023-03-31T16:58:24.437Z,94255.19
2023-03-31T17:00:58.190Z,94243.00
2023-03-31T17:03:25.306Z,94252.28
2023-03-31T17:05:57.805Z,94255.97
2023-03-31T17:08:29.271Z,94244.59
2023-03-31T17:11:07.081Z,94243.56
2023-03-31T17:13:38.508Z,94256.78
2023-03-31T17:16:18.657Z,94265.50
2023-03-31T17:18:53.129Z,94265.75
2023-03-31T17:21:24.656Z,94265.75
2023-03-31T17:23:53.497Z,94265.75
2023-03-31T17:26:22.328Z,94271.03
2023-03-31T17:28:49.104Z,94267.38
2023-03-31T17:31:19.462Z,94256.78
2023-03-31T17:33:50.869Z,94260.47
2023-03-31T17:36:20.150Z,94262.06
2023-03-31T17:38:47.132Z,94255.19
2023-03-31T17:41:18.223Z,94248.28
2023-03-31T17:43:45.854Z,94247.25
2023-03-31T17:46:16.370Z,94253.56
2023-03-31T17:48:43.420Z,94257.81
2023-03-31T17:51:15.420Z,94260.47
2023-03-31T17:53:46.234Z,94252.53
2023-03-31T17:56:13.280Z,94259.44
2023-03-31T17:58:42.095Z,94248.28
2023-03-31T18:01:09.575Z,94256.78
2023-03-31T18:03:39.251Z,94252.53
2023-03-31T18:06:07.565Z,94253.56
2023-03-31T18:08:34.926Z,94244.81
2023-03-31T18:11:08.314Z,94243.00
2023-03-31T18:13:36.310Z,94249.88
2023-03-31T18:16:08.778Z,94255.19
2023-03-31T18:18:36.748Z,94245.66
2023-03-31T18:21:09.825Z,94244.59
2023-03-31T18:23:36.742Z,94249.06
2023-03-31T18:26:07.429Z,94255.19
2023-03-31T18:28:36.286Z,94250.69
2023-03-31T18:31:06.752Z,94249.88
2023-03-31T18:33:36.105Z,94251.50
2023-03-31T18:36:05.089Z,94249.88
2023-03-31T18:38:34.483Z,94234.81
2023-03-31T18:41:03.647Z,94231.38
2023-03-31T18:43:33.346Z,94235.63
2023-03-31T18:46:04.833Z,94235.63
2023-03-31T18:48:31.598Z,94235.63
2023-03-31T18:50:58.467Z,94234.03
2023-03-31T18:53:25.275Z,94228.72
2023-03-31T18:55:57.885Z,94232.41
2023-03-31T18:58:30.350Z,94234.81
2023-03-31T19:00:57.724Z,94228.72
2023-03-31T19:03:27.663Z,94229.53
2023-03-31T19:06:06.757Z,94234.03
2023-03-31T19:08:33.445Z,94227.13
2023-03-31T19:11:07.574Z,94223.44
2023-03-31T19:13:34.497Z,94232.16
2023-03-31T19:16:01.660Z,94223.44
2023-03-31T19:18:33.635Z,94226.88
2023-03-31T19:21:03.025Z,94234.03
2023-03-31T19:23:34.126Z,94239.31
2023-03-31T19:26:02.977Z,94234.03
2023-03-31T19:28:32.358Z,94237.44
2023-03-31T19:30:59.165Z,94215.50
2023-03-31T19:33:29.042Z,94221.59
2023-03-31T19:36:02.089Z,94228.72
2023-03-31T19:38:32.054Z,94234.03
2023-03-31T19:41:00.038Z,94227.13
2023-03-31T19:43:31.746Z,94227.13
2023-03-31T19:45:58.709Z,94223.44
2023-03-31T19:48:26.648Z,94227.13
2023-03-31T19:50:59.609Z,94228.72
2023-03-31T19:53:26.605Z,94227.13
2023-03-31T19:55:57.742Z,94227.13
2023-03-31T19:58:27.194Z,94227.13
2023-03-31T20:00:54.610Z,94221.84
2023-03-31T20:03:24.544Z,94228.97
2023-03-31T20:05:52.041Z,94225.53
2023-03-31T20:08:18.666Z,94220.25
2023-03-31T20:10:47.512Z,94237.72
2023-03-31T20:13:17.848Z,94232.66
2023-03-31T20:15:49.277Z,94230.56
2023-03-31T20:18:19.718Z,94234.50
2023-03-31T20:20:51.233Z,94232.41
2023-03-31T20:23:21.087Z,94228.97
2023-03-31T20:25:51.286Z,94224.72
2023-03-31T20:28:20.160Z,94228.16
2023-03-31T20:30:51.914Z,94225.53
2023-03-31T20:33:18.549Z,94225.53
2023-03-31T20:35:50.134Z,94220.25
2023-03-31T20:38:19.054Z,94224.72
2023-03-31T20:40:49.119Z,94229.22
2023-03-31T20:43:15.778Z,94218.63
2023-03-31T20:45:47.129Z,94230.81
2023-03-31T20:48:19.273Z,94233.47
2023-03-31T20:50:46.029Z,94231.84
2023-03-31T20:53:17.947Z,94223.94
2023-03-31T20:55:47.347Z,94231.59
2023-03-31T20:58:14.149Z,94225.53
2023-03-31T21:00:46.136Z,94220.25
2023-03-31T21:03:12.892Z,94218.63
2023-03-31T21:05:48.637Z,94224.72
2023-03-31T21:08:15.815Z,94220.25
2023-03-31T21:10:43.538Z,94212.53
2023-03-31T21:13:16.725Z,94218.63
2023-03-31T21:15:47.460Z,94210.69
2023-03-31T21:18:16.789Z,94202.75
2023-03-31T21:20:53.839Z,94216.00
2023-03-31T21:23:22.945Z,94212.53
2023-03-31T21:25:50.625Z,94206.44
2023-03-31T21:28:19.822Z,94209.88
2023-03-31T21:30:56.000Z,94204.81
2023-03-31T21:33:28.831Z,94212.53
2023-03-31T21:35:59.038Z,94209.06
2023-03-31T21:38:25.963Z,94206.44
2023-03-31T21:40:52.709Z,94209.06
2023-03-31T21:43:19.853Z,94202.19
2023-03-31T21:45:48.670Z,94196.88
2023-03-31T21:48:15.406Z,94203.78
2023-03-31T21:50:42.196Z,94194.25
2023-03-31T21:53:12.192Z,94195.84
2023-03-31T21:55:41.613Z,94195.84
2023-03-31T21:58:10.978Z,94195.06
2023-03-31T22:00:39.983Z,94190.56
2023-03-31T22:05:43.505Z,94187.34
2023-03-31T22:08:13.021Z,94187.13
2023-03-31T22:10:39.930Z,94194.25
2023-03-31T22:13:09.222Z,94181.03
2023-03-31T22:15:38.058Z,94167.00
2023-03-31T22:18:04.795Z,94178.38
2023-03-31T22:20:31.879Z,94171.47
2023-03-31T22:23:00.920Z,94173.91
2023-03-31T22:25:30.732Z,94177.34
2023-03-31T22:28:06.065Z,94172.31
2023-03-31T22:30:33.861Z,94176.78
2023-03-31T22:33:02.774Z,94176.78
2023-03-31T22:35:34.427Z,94173.09
2023-03-31T22:38:04.461Z,94167.00
2023-03-31T22:40:32.423Z,94170.69
2023-03-31T22:43:01.654Z,94174.13
2023-03-31T22:45:33.775Z,94182.88
2023-03-31T22:48:00.703Z,94172.31
2023-03-31T22:50:27.486Z,94168.84
2023-03-31T22:53:00.606Z,94159.06
2023-03-31T22:55:27.306Z,94163.56
2023-03-31T22:57:56.998Z,94166.19
2023-03-31T23:00:25.839Z,94166.19
2023-03-31T23:02:52.744Z,94161.94
2023-03-31T23:05:21.715Z,94158.03
2023-03-31T23:07:48.469Z,94167.00
2023-03-31T23:10:17.275Z,94166.19
2023-03-31T23:12:46.325Z,94150.34
2023-03-31T23:15:15.837Z,94145.84
2023-03-31T23:17:47.246Z,94147.69
2023-03-31T23:20:16.164Z,94154.56
2023-03-31T23:22:45.014Z,94154.56
2023-03-31T23:25:13.814Z,94146.63
2023-03-31T23:27:42.670Z,94142.41
2023-03-31T23:30:12.015Z,94137.91
2023-03-31T23:32:41.112Z,94127.56
2023-03-31T23:35:08.186Z,94123.88
2023-03-31T23:37:37.006Z,94135.50
2023-03-31T23:40:04.401Z,94134.47
2023-03-31T23:42:31.381Z,94132.84
2023-03-31T23:45:00.641Z,94127.56
2023-03-31T23:47:29.500Z,94126.53
2023-03-31T23:49:56.978Z,94110.09
2023-03-31T23:52:27.412Z,94110.66
2023-03-31T23:54:56.239Z,94109.88
2023-03-31T23:57:25.108Z,94101.13
2023-03-31T23:59:52.555Z,94104.59
